Time;durP1;ratioP1;P1;durP2;ratioP2;P2;SDS_P1;SDS_P2;PMS_P1;PMS_P2;Temp;Humidity;BMP_temperature;BMP_pressure;BME280_temperature;BME280_humidity;BME280_pressure;Samples;Min_cycle;Max_cycle;Signal;HPM_P1;HPM_P2
2024/03/06 00:01:09;;;;;;;;;;;;;;;21.18;49.47;101342.70;2352459;75;52406;-81
2024/03/06 00:04:11;;;;;;;;;;;;;;;21.18;49.46;101346.74;2373796;74;49898;-81
2024/03/06 00:07:13;;;;;;;;;;;;;;;21.17;49.46;101357.16;2352221;75;50697;-82
2024/03/06 00:10:14;;;;;;;;;;;;;;;21.17;49.47;101357.16;2352535;75;51549;-81
2024/03/06 00:13:16;;;;;;;;;;;;;;;21.16;49.44;101360.37;2374169;74;49754;-80
2024/03/06 00:16:18;;;;;;;;;;;;;;;21.15;49.45;101358.71;2374043;74;50069;-83
2024/03/06 00:19:20;;;;;;;;;;;;;;;21.15;49.44;101362.75;2352430;74;50854;-81
2024/03/06 00:22:22;;;;;;;;;;;;;;;21.14;49.41;101367.78;2352284;75;50396;-81
2024/03/06 00:25:23;;;;;;;;;;;;;;;21.15;49.41;101374.03;2352784;75;50813;-82
2024/03/06 00:28:25;;;;;;;;;;;;;;;21.14;49.38;101376.37;2374290;74;52677;-80
2024/03/06 00:31:26;;;;;;;;;;;;;;;21.14;49.39;101384.44;2352756;75;50387;-81
2024/03/06 00:34:29;;;;;;;;;;;;;;;21.14;49.37;101378.55;2352960;75;50672;-80
2024/03/06 00:37:30;;;;;;;;;;;;;;;21.13;49.36;101389.00;2374343;74;49605;-81
2024/03/06 00:40:32;;;;;;;;;;;;;;;21.14;49.32;101394.69;2374642;74;50942;-82
2024/03/06 00:43:33;;;;;;;;;;;;;;;21.13;49.35;101398.41;2374856;74;51586;-81
2024/03/06 00:46:35;;;;;;;;;;;;;;;21.13;49.33;101399.76;2354457;75;50042;-83
2024/03/06 00:49:38;;;;;;;;;;;;;;;21.13;49.30;101404.31;2355222;74;51726;-82
2024/03/06 00:52:40;;;;;;;;;;;;;;;21.13;49.27;101402.97;2375234;74;49368;-81
2024/03/06 00:55:42;;;;;;;;;;;;;;;21.12;49.31;101405.31;2347044;76;50487;-81
2024/03/06 00:58:44;;;;;;;;;;;;;;;21.13;49.27;101411.04;2346758;76;50786;-81
2024/03/06 01:01:45;;;;;;;;;;;;;;;21.12;49.27;101409.34;2368396;73;51534;-82
2024/03/06 01:04:47;;;;;;;;;;;;;;;21.12;49.31;101416.08;2395214;73;50977;-80
2024/03/06 01:07:49;;;;;;;;;;;;;;;21.11;49.28;101421.97;2429630;73;50737;-82
2024/03/06 01:10:50;;;;;;;;;;;;;;;21.11;49.31;101417.94;2430017;73;50382;-81
2024/03/06 01:13:52;;;;;;;;;;;;;;;21.09;49.35;101414.09;2429785;73;50234;-81
2024/03/06 01:16:54;;;;;;;;;;;;;;;21.09;49.33;101419.48;2395506;73;49815;-80
2024/03/06 01:19:55;;;;;;;;;;;;;;;21.10;49.35;101421.66;2429779;73;50731;-80
2024/03/06 01:22:57;;;;;;;;;;;;;;;21.09;49.26;101424.86;2429062;73;51483;-81
2024/03/06 01:25:58;;;;;;;;;;;;;;;21.08;49.25;101419.13;2428894;73;50390;-81
2024/03/06 01:29:00;;;;;;;;;;;;;;;21.09;49.28;101423.52;2393810;73;51651;-82
2024/03/06 01:32:02;;;;;;;;;;;;;;;21.08;49.27;101421.83;2393912;73;51489;-81
2024/03/06 01:35:05;;;;;;;;;;;;;;;21.08;49.26;101429.06;2428514;73;50737;-82
2024/03/06 01:38:07;;;;;;;;;;;;;;;21.07;49.24;101430.92;2394528;73;50763;-80
2024/03/06 01:41:09;;;;;;;;;;;;;;;21.08;49.26;101433.10;2393981;73;51142;-82
2024/03/06 01:44:11;;;;;;;;;;;;;;;21.07;49.24;101434.97;2428744;73;49927;-82
2024/03/06 01:47:13;;;;;;;;;;;;;;;21.06;49.22;101430.58;2428765;73;51319;-81
2024/03/06 01:50:14;;;;;;;;;;;;;;;21.06;49.25;101437.31;2394345;73;50375;-80
2024/03/06 01:53:16;;;;;;;;;;;;;;;21.05;49.23;101445.06;2390469;73;51675;-81
2024/03/06 01:56:17;;;;;;;;;;;;;;;21.04;49.22;101438.02;2416612;73;51412;-80
2024/03/06 01:59:19;;;;;;;;;;;;;;;21.05;49.20;101439.69;2416823;73;50931;-81
2024/03/06 02:02:21;;;;;;;;;;;;;;;21.04;49.21;101435.33;2417104;73;50402;-81
2024/03/06 02:05:23;;;;;;;;;;;;;;;21.04;49.22;101442.55;2382941;73;52329;-83
2024/03/06 02:08:24;;;;;;;;;;;;;;;21.04;49.19;101446.09;2416959;73;50757;-81
2024/03/06 02:11:26;;;;;;;;;;;;;;;21.04;49.18;101438.50;2416862;73;51577;-82
2024/03/06 02:14:29;;;;;;;;;;;;;;;21.04;49.16;101437.16;2416522;73;50917;-80
2024/03/06 02:17:31;;;;;;;;;;;;;;;21.03;49.17;101440.36;2382789;73;50082;-82
2024/03/06 02:20:34;;;;;;;;;;;;;;;21.03;49.16;101440.36;2416900;73;51726;-81
2024/03/06 02:23:35;;;;;;;;;;;;;;;21.03;49.14;101439.02;2416851;73;50731;-82
2024/03/06 02:26:37;;;;;;;;;;;;;;;21.03;49.14;101442.23;2416664;73;50897;-82
2024/03/06 02:29:39;;;;;;;;;;;;;;;21.02;49.13;101445.43;2416827;73;51054;-82
2024/03/06 02:32:43;;;;;;;;;;;;;;;21.03;49.14;101448.95;2417062;73;51487;-84
2024/03/06 02:35:45;;;;;;;;;;;;;;;21.02;49.15;101444.09;2417140;73;40954;-82
2024/03/06 02:38:48;;;;;;;;;;;;;;;21.01;49.18;101447.77;2383250;73;51505;-83
2024/03/06 02:41:50;;;;;;;;;;;;;;;21.03;49.13;101451.13;2382710;73;50124;-82
2024/03/06 02:44:52;;;;;;;;;;;;;;;21.03;49.09;101454.33;2416828;73;51543;-82
2024/03/06 02:47:53;;;;;;;;;;;;;;;21.03;49.08;101456.52;2416673;73;52138;-81
2024/03/06 02:50:56;;;;;;;;;;;;;;;21.02;49.12;101462.92;2416727;73;51353;-81
2024/03/06 02:53:57;;;;;;;;;;;;;;;21.01;49.07;101459.88;2420315;73;50937;-81
2024/03/06 02:56:59;;;;;;;;;;;;;;;21.02;49.08;101458.88;2387652;73;50045;-81
2024/03/06 03:00:00;;;;;;;;;;;;;;;21.03;49.07;101459.72;2427239;73;50746;-83
2024/03/06 03:03:02;;;;;;;;;;;;;;;21.02;49.02;101461.58;2427353;73;50362;-81
2024/03/06 03:06:04;;;;;;;;;;;;;;;21.02;48.99;101455.36;2427505;73;50239;-82
2024/03/06 03:09:06;;;;;;;;;;;;;;;21.01;48.98;101456.36;2361526;73;52495;-81
2024/03/06 03:12:08;;;;;;;;;;;;;;;21.02;48.93;101461.58;2427642;73;50720;-81
2024/03/06 03:15:09;;;;;;;;;;;;;;;21.02;48.93;101461.58;2428136;73;50349;-82
2024/03/06 03:18:11;;;;;;;;;;;;;;;21.02;48.94;101464.27;2391066;73;50755;-81
2024/03/06 03:21:15;;;;;;;;;;;;;;;21.02;48.87;101470.99;2391379;73;51505;-82
2024/03/06 03:24:20;;;;;;;;;;;;;;;21.03;48.88;101471.31;2429987;73;50709;-81
2024/03/06 03:27:20;;;;;;;;;;;;;;;21.02;48.88;101484.45;2429490;73;40901;-80
2024/03/06 03:30:22;;;;;;;;;;;;;;;21.02;48.83;101484.96;2428755;73;49942;-81
2024/03/06 03:33:23;;;;;;;;;;;;;;;21.02;48.87;101487.65;2362772;73;51093;-83
2024/03/06 03:36:25;;;;;;;;;;;;;;;21.03;48.85;101494.69;2429465;73;51523;-82
2024/03/06 03:39:27;;;;;;;;;;;;;;;21.02;48.77;101491.17;2428802;73;50540;-81
2024/03/06 03:42:28;;;;;;;;;;;;;;;21.03;48.74;101492.84;2428230;73;51014;-81
2024/03/06 03:45:30;;;;;;;;;;;;;;;21.02;48.80;101497.06;2388309;73;51165;-82
2024/03/06 03:48:32;;;;;;;;;;;;;;;21.02;48.80;101487.65;2427603;73;50692;-82
2024/03/06 03:51:33;;;;;;;;;;;;;;;21.02;48.81;101494.37;2427844;73;50365;-82
2024/03/06 03:54:35;;;;;;;;;;;;;;;21.02;48.79;101497.90;2427851;73;51749;-81
2024/03/06 03:57:37;;;;;;;;;;;;;;;21.01;48.80;101498.90;2388211;73;52340;-81
2024/03/06 04:00:38;;;;;;;;;;;;;;;21.01;48.80;101498.90;2428398;73;50410;-80
2024/03/06 04:03:42;;;;;;;;;;;;;;;21.01;48.82;101502.94;2427452;73;50240;-81
2024/03/06 04:06:43;;;;;;;;;;;;;;;21.01;48.75;101498.90;2383252;73;41453;-81
2024/03/06 04:09:45;;;;;;;;;;;;;;;21.01;48.81;101499.41;2369325;75;50089;-81
2024/03/06 04:12:46;;;;;;;;;;;;;;;21.00;48.79;101502.61;2377466;75;50559;-81
2024/03/06 04:15:48;;;;;;;;;;;;;;;21.01;48.79;101500.23;2378018;75;50246;-84
2024/03/06 04:18:49;;;;;;;;;;;;;;;21.01;48.84;101505.63;2378456;75;51471;-81
2024/03/06 04:21:51;;;;;;;;;;;;;;;21.01;48.78;101508.31;2369829;75;50094;-81
2024/03/06 04:24:53;;;;;;;;;;;;;;;21.01;48.77;101507.48;2378308;75;50674;-81
2024/03/06 04:27:54;;;;;;;;;;;;;;;21.00;48.75;101508.51;2378260;75;51317;-81
2024/03/06 04:30:56;;;;;;;;;;;;;;;21.00;48.77;101509.34;2378753;75;51472;-81
2024/03/06 04:33:57;;;;;;;;;;;;;;;20.99;48.77;101512.20;2342019;75;51697;-81
2024/03/06 04:37:00;;;;;;;;;;;;;;;20.99;48.74;101509.02;2377656;75;50359;-80
2024/03/06 04:40:02;;;;;;;;;;;;;;;20.98;48.79;101510.53;2369646;75;51382;-82
2024/03/06 04:43:04;;;;;;;;;;;;;;;20.98;48.75;101515.41;2378008;75;50953;-83
2024/03/06 04:46:06;;;;;;;;;;;;;;;20.99;48.73;101515.75;2342384;75;49547;-81
2024/03/06 04:49:08;;;;;;;;;;;;;;;20.99;48.74;101517.09;2377473;75;50648;-81
2024/03/06 04:52:09;;;;;;;;;;;;;;;20.97;48.72;101521.81;2377461;75;51201;-81
2024/03/06 04:55:12;;;;;;;;;;;;;;;20.98;48.74;101521.30;2363171;74;51493;-83
2024/03/06 04:58:14;;;;;;;;;;;;;;;20.97;48.74;101521.81;2350876;75;50102;-81
2024/03/06 05:01:15;;;;;;;;;;;;;;;20.97;48.69;101527.19;2343857;76;51557;-82
2024/03/06 05:04:17;;;;;;;;;;;;;;;20.96;48.73;101526.88;2344047;75;52145;-80
2024/03/06 05:07:19;;;;;;;;;;;;;;;20.97;48.73;101526.36;2344143;76;49921;-82
2024/03/06 05:10:20;;;;;;;;;;;;;;;20.97;48.70;101538.47;2324131;76;51166;-83
2024/03/06 05:13:22;;;;;;;;;;;;;;;20.96;48.69;101532.25;2344564;76;51503;-80
2024/03/06 05:16:23;;;;;;;;;;;;;;;20.96;48.69;101544.36;2345055;76;51265;-80
2024/03/06 05:19:34;;;;;;;;;;;;;;;20.95;48.71;101550.73;2345403;76;50771;-81
2024/03/06 05:22:28;;;;;;;;;;;;;;;20.95;48.71;101549.39;2340239;76;41070;-82
2024/03/06 05:25:30;;;;;;;;;;;;;;;20.96;48.70;101551.57;2311946;76;51569;-82
2024/03/06 05:28:32;;;;;;;;;;;;;;;20.95;48.67;101556.13;2344213;76;50668;-82
2024/03/06 05:31:33;;;;;;;;;;;;;;;20.95;48.69;101562.02;2344583;76;51518;-83
2024/03/06 05:34:35;;;;;;;;;;;;;;;20.94;48.67;101563.88;2312629;76;51646;-83
2024/03/06 05:37:36;;;;;;;;;;;;;;;20.94;48.71;101573.29;2312466;76;51690;-81
2024/03/06 05:40:40;;;;;;;;;;;;;;;20.94;48.64;101575.98;2344005;76;51542;-83
2024/03/06 05:43:41;;;;;;;;;;;;;;;20.94;48.79;101576.49;2345409;76;41330;-82
2024/03/06 05:46:43;;;;;;;;;;;;;;;20.94;48.88;101586.74;2312184;76;51525;-84
2024/03/06 05:49:44;;;;;;;;;;;;;;;20.94;48.90;101589.44;2343964;76;50330;-81
2024/03/06 05:52:46;;;;;;;;;;;;;;;20.93;48.93;101581.02;2374475;74;50776;-82
2024/03/06 05:55:48;;;;;;;;;;;;;;;20.94;48.93;101593.98;2339964;74;51457;-84
2024/03/06 05:58:49;;;;;;;;;;;;;;;20.94;48.90;101597.50;2349501;75;49604;-80
2024/03/06 06:01:51;;;;;;;;;;;;;;;20.98;49.27;101598.81;2342255;75;50631;-81
2024/03/06 06:04:52;;;;;;;;;;;;;;;20.98;49.33;101608.73;2342182;76;51564;-81
2024/03/06 06:07:54;;;;;;;;;;;;;;;20.99;49.32;101604.55;2342314;76;50459;-81
2024/03/06 06:10:55;;;;;;;;;;;;;;;20.99;49.29;101617.13;2342430;75;49478;-80
2024/03/06 06:13:57;;;;;;;;;;;;;;;21.00;49.30;101622.35;2342982;74;50424;-81
2024/03/06 06:16:59;;;;;;;;;;;;;;;20.99;49.29;101626.06;2270988;76;50501;-81
2024/03/06 06:20:00;;;;;;;;;;;;;;;21.00;49.86;101629.59;2322889;76;52592;-80
2024/03/06 06:23:02;;;;;;;;;;;;;;;21.02;49.77;101636.98;2269805;77;50999;-82
2024/03/06 06:26:03;;;;;;;;;;;;;;;21.03;49.30;101638.65;2322622;76;51450;-80
2024/03/06 06:29:05;;;;;;;;;;;;;;;21.04;48.87;101641.18;2270263;77;50519;-81
2024/03/06 06:32:07;;;;;;;;;;;;;;;21.03;48.46;101638.14;2323333;76;51475;-83
2024/03/06 06:35:09;;;;;;;;;;;;;;;21.01;48.19;101644.70;2294163;76;50970;-82
2024/03/06 06:38:11;;;;;;;;;;;;;;;21.03;48.29;101646.21;2323631;76;50740;-81
2024/03/06 06:41:13;;;;;;;;;;;;;;;21.03;48.08;101646.72;2324301;76;51498;-82
2024/03/06 06:44:14;;;;;;;;;;;;;;;21.03;47.98;101652.94;2324388;76;50858;-84
2024/03/06 06:47:16;;;;;;;;;;;;;;;21.01;47.69;101649.58;2294863;76;49646;-81
2024/03/06 06:50:18;;;;;;;;;;;;;;;21.01;47.49;101651.44;2270550;77;51453;-81
2024/03/06 06:53:20;;;;;;;;;;;;;;;20.99;47.44;101657.49;2342854;76;51983;-82
2024/03/06 06:56:23;;;;;;;;;;;;;;;20.98;47.65;101659.34;2331319;76;50318;-83
2024/03/06 06:59:24;;;;;;;;;;;;;;;20.95;47.02;101647.59;2302599;77;41396;-82
2024/03/06 07:02:27;;;;;;;;;;;;;;;20.94;47.08;101657.20;2343641;76;52073;-83
2024/03/06 07:05:29;;;;;;;;;;;;;;;20.94;46.61;101659.89;2339033;74;51576;-81
2024/03/06 07:08:30;;;;;;;;;;;;;;;20.94;46.69;101659.89;2418092;73;51473;-82
2024/03/06 07:11:32;;;;;;;;;;;;;;;20.94;46.45;101675.53;2423533;73;50281;-82
2024/03/06 07:14:34;;;;;;;;;;;;;;;20.94;46.50;101671.48;2386820;73;51117;-81
2024/03/06 07:17:35;;;;;;;;;;;;;;;20.94;46.46;101668.80;2423528;73;50712;-82
2024/03/06 07:20:37;;;;;;;;;;;;;;;20.96;46.63;101669.47;2423868;73;51409;-82
2024/03/06 07:23:38;;;;;;;;;;;;;;;20.97;46.65;101672.99;2386652;73;49609;-82
2024/03/06 07:26:40;;;;;;;;;;;;;;;20.98;46.80;101673.31;2423327;73;50790;-81
2024/03/06 07:29:42;;;;;;;;;;;;;;;20.97;46.81;101681.90;2423747;73;51471;-82
2024/03/06 07:32:43;;;;;;;;;;;;;;;20.98;46.91;101684.91;2386362;73;49973;-82
2024/03/06 07:35:45;;;;;;;;;;;;;;;21.01;46.97;101691.28;2385951;73;51510;-82
2024/03/06 07:38:47;;;;;;;;;;;;;;;21.04;46.93;101695.00;2423159;73;51483;-83
2024/03/06 07:41:48;;;;;;;;;;;;;;;21.06;47.09;101692.11;2423074;73;51696;-81
2024/03/06 07:44:50;;;;;;;;;;;;;;;21.07;47.22;101695.16;2386298;73;51355;-80
2024/03/06 07:47:52;;;;;;;;;;;;;;;21.07;47.24;101689.77;2386325;73;51091;-80
2024/03/06 07:50:53;;;;;;;;;;;;;;;21.06;47.36;101702.36;2424236;73;50282;-80
2024/03/06 07:53:55;;;;;;;;;;;;;;;21.05;47.38;101700.70;2405891;73;51550;-80
2024/03/06 07:56:56;;;;;;;;;;;;;;;21.07;47.49;101699.20;2361413;74;51554;-80
2024/03/06 07:59:58;;;;;;;;;;;;;;;21.08;47.39;101700.86;2330642;75;51026;-80
2024/03/06 08:03:00;;;;;;;;;;;;;;;21.09;47.45;101710.12;2357824;75;51435;-80
2024/03/06 08:06:03;;;;;;;;;;;;;;;21.09;47.42;101710.59;2367103;75;51592;-79
2024/03/06 08:09:06;;;;;;;;;;;;;;;21.10;47.45;101709.09;2359970;75;50787;-80
2024/03/06 08:12:08;;;;;;;;;;;;;;;21.12;47.45;101714.31;2331288;75;53034;-79
2024/03/06 08:15:13;;;;;;;;;;;;;;;21.13;47.33;101720.02;2366380;75;51371;-79
2024/03/06 08:18:14;;;;;;;;;;;;;;;21.14;47.45;101718.16;2366382;75;51362;-80
2024/03/06 08:21:16;;;;;;;;;;;;;;;21.17;47.43;101723.19;2362944;75;51509;-80
2024/03/06 08:24:18;;;;;;;;;;;;;;;21.16;47.42;101725.05;2309896;75;52442;-80
2024/03/06 08:27:20;;;;;;;;;;;;;;;21.18;47.51;101733.79;2357993;75;50230;-80
2024/03/06 08:30:22;;;;;;;;;;;;;;;21.20;47.38;101729.59;2333123;75;51543;-80
2024/03/06 08:33:24;;;;;;;;;;;;;;;21.21;47.46;101736.64;2331980;75;50297;-78
2024/03/06 08:36:26;;;;;;;;;;;;;;;21.21;47.47;101733.95;2358235;75;50657;-79
2024/03/06 08:39:28;;;;;;;;;;;;;;;21.24;47.43;101741.67;2324304;75;49581;-80
2024/03/06 08:42:30;;;;;;;;;;;;;;;21.25;47.40;101747.41;2367994;75;50384;-79
2024/03/06 08:45:32;;;;;;;;;;;;;;;21.27;47.30;101744.01;2366072;75;50341;-81
2024/03/06 08:48:33;;;;;;;;;;;;;;;21.29;47.15;101747.38;2326540;75;51535;-80
2024/03/06 08:51:35;;;;;;;;;;;;;;;21.31;47.06;101746.19;2368099;75;50618;-79
2024/03/06 08:54:37;;;;;;;;;;;;;;;21.31;47.05;101750.73;2353917;75;50155;-79
2024/03/06 08:57:39;;;;;;;;;;;;;;;21.34;47.05;101757.62;2367150;75;50622;-79
2024/03/06 09:00:40;;;;;;;;;;;;;;;21.36;46.97;101759.13;2362520;75;51928;-80
2024/03/06 09:03:42;;;;;;;;;;;;;;;21.40;46.92;101755.59;2351730;75;50371;-79
2024/03/06 09:06:43;;;;;;;;;;;;;;;21.40;46.95;101767.23;2368129;75;51104;-79
2024/03/06 09:09:45;;;;;;;;;;;;;;;21.42;46.92;101761.14;2357815;73;51540;-79
2024/03/06 09:12:47;;;;;;;;;;;;;;;21.43;46.95;101768.23;2328959;75;50611;-80
2024/03/06 09:15:48;;;;;;;;;;;;;;;21.45;46.89;101762.16;2359447;75;50705;-80
2024/03/06 09:18:50;;;;;;;;;;;;;;;21.47;46.89;101766.84;2369962;75;51393;-80
2024/03/06 09:21:53;;;;;;;;;;;;;;;21.50;46.86;101769.21;2369935;75;50716;-79
2024/03/06 09:25:02;;;;;;;;;;;;;;;21.52;46.90;101771.20;2321236;75;51547;-78
2024/03/06 09:28:05;;;;;;;;;;;;;;;21.55;46.88;101777.25;2364435;75;50392;-79
2024/03/06 09:31:07;;;;;;;;;;;;;;;21.55;46.86;101774.56;2370878;75;50167;-79
2024/03/06 09:34:12;;;;;;;;;;;;;;;21.56;46.85;101773.05;2368112;75;51528;-79
2024/03/06 09:37:12;;;;;;;;;;;;;;;21.59;46.86;101782.63;2364032;75;41719;-79
2024/03/06 09:40:15;;;;;;;;;;;;;;;21.60;46.82;101772.18;2370180;73;52215;-79
2024/03/06 09:43:17;;;;;;;;;;;;;;;21.61;46.93;101780.09;2362095;75;51464;-80
2024/03/06 09:46:18;;;;;;;;;;;;;;;21.63;46.79;101782.59;2360832;75;50782;-79
2024/03/06 09:49:20;;;;;;;;;;;;;;;21.65;46.99;101784.61;2328779;75;52306;-78
2024/03/06 09:52:22;;;;;;;;;;;;;;;21.66;47.10;101780.92;2326565;75;50384;-80
2024/03/06 09:55:23;;;;;;;;;;;;;;;21.67;47.13;101784.77;2354611;75;51548;-78
2024/03/06 09:58:25;;;;;;;;;;;;;;;21.70;47.02;101783.58;2327616;75;50019;-78
2024/03/06 10:01:27;;;;;;;;;;;;;;;21.70;47.10;101786.27;2325800;75;52520;-80
2024/03/06 10:04:29;;;;;;;;;;;;;;;21.69;47.02;101787.30;2363337;75;51319;-80
2024/03/06 10:07:31;;;;;;;;;;;;;;;21.69;47.00;101798.08;2360220;75;50683;-80
2024/03/06 10:10:32;;;;;;;;;;;;;;;21.71;46.98;101791.50;2370846;73;51970;-80
2024/03/06 10:13:34;;;;;;;;;;;;;;;21.71;47.02;101795.53;2328806;75;49596;-79
2024/03/06 10:16:36;;;;;;;;;;;;;;;21.73;46.92;101789.47;2364051;73;50675;-79
2024/03/06 10:19:38;;;;;;;;;;;;;;;21.75;47.01;101794.66;2359276;73;50941;-80
2024/03/06 10:22:41;;;;;;;;;;;;;;;21.75;47.31;101794.66;2359922;75;51590;-80
2024/03/06 10:25:44;;;;;;;;;;;;;;;21.77;47.33;101798.03;2332640;75;49541;-80
2024/03/06 10:28:46;;;;;;;;;;;;;;;21.78;47.33;101793.47;2333021;75;51370;-79
2024/03/06 10:31:48;;;;;;;;;;;;;;;21.78;47.41;101794.30;2360024;75;51331;-79
2024/03/06 10:34:49;;;;;;;;;;;;;;;21.82;47.35;101794.81;2361905;75;51599;-80
2024/03/06 10:37:51;;;;;;;;;;;;;;;21.82;47.38;101795.64;2332807;75;51004;-80
2024/03/06 10:40:53;;;;;;;;;;;;;;;21.85;47.27;101799.33;2359882;75;50447;-80
2024/03/06 10:43:54;;;;;;;;;;;;;;;21.86;47.21;101786.20;2359690;75;50326;-80
2024/03/06 10:46:57;;;;;;;;;;;;;;;21.88;47.19;101793.58;2359717;75;50371;-80
2024/03/06 10:50:00;;;;;;;;;;;;;;;21.88;47.17;101785.49;2332148;75;51097;-81
2024/03/06 10:53:01;;;;;;;;;;;;;;;21.86;47.14;101786.20;2360036;75;50461;-79
2024/03/06 10:56:03;;;;;;;;;;;;;;;21.84;47.01;101782.84;2360065;75;50350;-79
2024/03/06 10:59:05;;;;;;;;;;;;;;;21.81;46.96;101795.80;2369174;75;51447;-79
2024/03/06 11:02:08;;;;;;;;;;;;;;;21.79;46.86;101787.92;2343460;75;51003;-80
2024/03/06 11:05:10;;;;;;;;;;;;;;;21.77;46.87;101790.46;2371383;75;50258;-79
2024/03/06 11:08:12;;;;;;;;;;;;;;;21.76;46.88;101795.02;2343574;75;49843;-80
2024/03/06 11:11:18;;;;;;;;;;;;;;;21.78;46.96;101790.27;2371487;75;50334;-80
2024/03/06 11:14:21;;;;;;;;;;;;;;;21.79;46.91;101786.58;2342942;75;49986;-81
2024/03/06 11:17:24;;;;;;;;;;;;;;;21.82;46.89;101790.77;2370515;75;51537;-80
2024/03/06 11:20:27;;;;;;;;;;;;;;;21.84;46.92;101791.44;2371656;75;51462;-80
2024/03/06 11:23:29;;;;;;;;;;;;;;;21.85;46.86;101789.89;2344168;75;22565;-81
2024/03/06 11:26:31;;;;;;;;;;;;;;;21.86;46.92;101790.73;2317038;75;51106;-80
2024/03/06 11:29:51;;;;;;;;;;;;;;;21.84;46.75;101786.05;2343766;75;50422;-80
2024/03/06 11:33:00;;;;;;;;;;;;;;;21.82;46.75;101780.83;2371555;75;51491;-80
2024/03/06 11:36:20;;;;;;;;;;;;;;;21.80;46.70;101779.33;2343553;75;50505;-81
2024/03/06 11:39:22;;;;;;;;;;;;;;;21.78;46.71;101785.39;2343542;75;49626;-79
2024/03/06 11:42:26;;;;;;;;;;;;;;;21.75;46.72;101785.23;2371530;75;50588;-79
2024/03/06 11:45:27;;;;;;;;;;;;;;;21.73;46.64;101781.88;2369962;75;50483;-79
2024/03/06 11:48:29;;;;;;;;;;;;;;;21.75;46.83;101783.89;2371547;75;50443;-79
2024/03/06 11:51:30;;;;;;;;;;;;;;;21.78;46.82;101792.13;2343486;75;51650;-79
2024/03/06 11:54:33;;;;;;;;;;;;;;;21.80;46.67;101784.20;2371681;74;50726;-79
2024/03/06 11:57:35;;;;;;;;;;;;;;;21.83;46.37;101777.62;2343700;75;51495;-80
2024/03/06 12:00:37;;;;;;;;;;;;;;;21.84;46.50;101770.72;2371689;75;50012;-80
2024/03/06 12:03:39;;;;;;;;;;;;;;;21.85;46.33;101771.03;2343644;75;50817;-79
2024/03/06 12:06:40;;;;;;;;;;;;;;;21.84;46.47;101772.58;2389454;73;50814;-81
2024/03/06 12:09:42;;;;;;;;;;;;;;;21.83;46.38;101774.41;2393897;74;52287;-80
2024/03/06 12:12:48;;;;;;;;;;;;;;;21.85;46.47;101777.77;2393738;74;52317;-79
2024/03/06 12:15:47;;;;;;;;;;;;;;;21.83;46.39;101773.06;2392784;74;21776;-80
2024/03/06 12:18:57;;;;;;;;;;;;;;;21.83;46.44;101772.23;2393719;74;51493;-80
2024/03/06 12:22:03;;;;;;;;;;;;;;;21.82;46.36;101774.09;2393600;73;52680;-79
2024/03/06 12:25:05;;;;;;;;;;;;;;;21.82;46.64;101774.61;2393557;73;51210;-80
2024/03/06 12:28:11;;;;;;;;;;;;;;;21.78;46.80;101774.10;2336218;74;49568;-79
2024/03/06 12:31:13;;;;;;;;;;;;;;;21.78;46.83;101768.71;2362341;74;22374;-79
2024/03/06 12:34:19;;;;;;;;;;;;;;;21.77;46.92;101763.52;2393705;74;50345;-80
2024/03/06 12:37:18;;;;;;;;;;;;;;;21.75;47.12;101765.86;2361471;74;22427;-80
2024/03/06 12:40:20;;;;;;;;;;;;;;;21.78;47.21;101764.67;2362890;74;49547;-79
2024/03/06 12:43:21;;;;;;;;;;;;;;;21.80;47.24;101765.85;2394072;74;51562;-78
2024/03/06 12:46:23;;;;;;;;;;;;;;;21.80;47.19;101759.95;2393942;74;51490;-79
2024/03/06 12:49:25;;;;;;;;;;;;;;;21.80;47.10;101766.69;2394164;73;50795;-78
2024/03/06 12:52:26;;;;;;;;;;;;;;;21.77;47.16;101758.96;2362788;74;50934;-78
2024/03/06 12:55:28;;;;;;;;;;;;;;;21.76;47.01;101757.30;2393646;74;51537;-79
2024/03/06 12:58:35;;;;;;;;;;;;;;;21.75;47.08;101760.98;2347128;74;50600;-79
2024/03/06 13:01:33;;;;;;;;;;;;;;;21.73;47.00;101761.19;2306121;77;22801;-78
2024/03/06 13:04:34;;;;;;;;;;;;;;;21.72;46.76;101766.22;2280084;77;49552;-80
2024/03/06 13:07:36;;;;;;;;;;;;;;;21.72;46.85;101762.70;2311453;77;49723;-79
2024/03/06 13:10:38;;;;;;;;;;;;;;;21.71;47.05;101771.80;2311571;77;50269;-81
2024/03/06 13:13:39;;;;;;;;;;;;;;;21.68;46.99;101769.44;2329289;75;50356;-80
2024/03/06 13:16:41;;;;;;;;;;;;;;;21.70;47.29;101768.77;2331099;74;51135;-80
2024/03/06 13:19:43;;;;;;;;;;;;;;;21.68;47.35;101770.78;2364877;74;50748;-80
2024/03/06 13:22:45;;;;;;;;;;;;;;;21.68;47.35;101769.44;2356385;74;50735;-79
2024/03/06 13:25:47;;;;;;;;;;;;;;;21.66;47.29;101770.98;2350289;74;50823;-81
2024/03/06 13:28:48;;;;;;;;;;;;;;;21.66;47.42;101769.63;2323574;74;51163;-80
2024/03/06 13:31:50;;;;;;;;;;;;;;;21.67;47.42;101769.13;2358528;74;51477;-80
2024/03/06 13:34:51;;;;;;;;;;;;;;;21.65;47.62;101767.11;2356372;74;50787;-80
2024/03/06 13:37:53;;;;;;;;;;;;;;;21.64;47.66;101770.83;2356690;74;50354;-80
2024/03/06 13:40:55;;;;;;;;;;;;;;;21.62;47.65;101762.08;2356869;74;51973;-79
2024/03/06 13:43:57;;;;;;;;;;;;;;;21.62;47.66;101770.16;2359106;74;50749;-79
2024/03/06 13:46:58;;;;;;;;;;;;;;;21.61;47.69;101767.98;2351782;74;50621;-81
2024/03/06 13:50:00;;;;;;;;;;;;;;;21.59;47.69;101766.47;2359664;74;50689;-82
2024/03/06 13:53:01;;;;;;;;;;;;;;;21.60;47.84;101774.36;2305979;74;50930;-81
2024/03/06 13:56:03;;;;;;;;;;;;;;;21.58;47.86;101768.34;2364678;74;51636;-81
2024/03/06 13:59:05;;;;;;;;;;;;;;;21.57;47.87;101765.80;2357381;74;50657;-82
2024/03/06 14:02:06;;;;;;;;;;;;;;;21.56;47.86;101774.40;2351561;74;50284;-82
2024/03/06 14:05:08;;;;;;;;;;;;;;;21.56;47.97;101769.52;2327520;74;50015;-82
2024/03/06 14:08:11;;;;;;;;;;;;;;;21.56;47.92;101777.60;2318346;74;51490;-81
2024/03/06 14:11:14;;;;;;;;;;;;;;;21.55;47.89;101779.95;2354964;74;50739;-83
2024/03/06 14:14:15;;;;;;;;;;;;;;;21.51;47.91;101777.61;2346852;74;51506;-83
2024/03/06 14:17:17;;;;;;;;;;;;;;;21.51;47.91;101779.47;2350140;75;51018;-82
2024/03/06 14:20:18;;;;;;;;;;;;;;;21.53;48.00;101785.52;2344509;76;51499;-82
2024/03/06 14:23:20;;;;;;;;;;;;;;;21.52;48.04;101781.13;2343964;76;50372;-82
2024/03/06 14:26:22;;;;;;;;;;;;;;;21.51;48.05;101796.45;2350643;75;51429;-83
2024/03/06 14:29:25;;;;;;;;;;;;;;;21.52;48.03;101791.39;2350674;75;51162;-81
2024/03/06 14:32:27;;;;;;;;;;;;;;;21.52;48.04;101781.13;2344205;76;50420;-83
2024/03/06 14:35:28;;;;;;;;;;;;;;;21.50;48.06;101777.29;2344121;76;50780;-80
2024/03/06 14:38:30;;;;;;;;;;;;;;;21.51;48.00;101786.20;2344101;76;50210;-82
2024/03/06 14:41:32;;;;;;;;;;;;;;;21.50;47.98;101781.33;2350787;75;51478;-82
2024/03/06 14:44:33;;;;;;;;;;;;;;;21.49;47.97;101778.28;2344119;76;50447;-82
2024/03/06 14:47:35;;;;;;;;;;;;;;;21.49;47.94;101782.84;2344060;76;50730;-82
2024/03/06 14:50:37;;;;;;;;;;;;;;;21.47;47.92;101785.69;2344190;76;50589;-81
2024/03/06 14:53:39;;;;;;;;;;;;;;;21.46;47.86;101786.72;2350485;75;49878;-82
2024/03/06 14:56:41;;;;;;;;;;;;;;;21.47;47.83;101786.20;2344180;76;50402;-82
2024/03/06 14:59:42;;;;;;;;;;;;;;;21.45;47.81;101790.44;2344428;74;51684;-83
2024/03/06 15:02:45;;;;;;;;;;;;;;;21.45;47.74;101792.27;2344539;76;51458;-81
2024/03/06 15:05:46;;;;;;;;;;;;;;;21.44;47.75;101788.73;2344497;76;50684;-81
2024/03/06 15:08:48;;;;;;;;;;;;;;;21.43;47.74;101788.42;2351342;75;51047;-83
2024/03/06 15:11:51;;;;;;;;;;;;;;;21.42;47.72;101784.03;2345319;76;50735;-82
2024/03/06 15:14:56;;;;;;;;;;;;;;;21.42;47.68;101792.63;2344289;76;50688;-81
2024/03/06 15:17:56;;;;;;;;;;;;;;;21.41;47.66;101782.87;2345501;75;22315;-82
2024/03/06 15:20:58;;;;;;;;;;;;;;;21.41;47.69;101789.61;2343559;76;51483;-81
2024/03/06 15:23:59;;;;;;;;;;;;;;;21.41;47.63;101789.09;2343485;76;51924;-82
2024/03/06 15:27:01;;;;;;;;;;;;;;;21.40;47.68;101794.16;2350642;75;52357;-82
2024/03/06 15:30:05;;;;;;;;;;;;;;;21.38;47.69;101793.48;2351139;75;50135;-82
2024/03/06 15:33:07;;;;;;;;;;;;;;;21.39;47.70;101798.36;2343400;75;51132;-81